createdAt,value
2024-02-27T00:01:14.962Z,98146.75
2024-02-27T00:03:42.739Z,98149.81
2024-02-27T00:06:10.606Z,98147.47
2024-02-27T00:08:38.894Z,98156.84
2024-02-27T00:11:06.679Z,98148.63
2024-02-27T00:13:34.164Z,98155.22
2024-02-27T00:16:02.634Z,98154.66
2024-02-27T00:18:30.470Z,98152.44
2024-02-27T00:20:58.101Z,98157.97
2024-02-27T00:23:25.525Z,98157.97
2024-02-27T00:25:53.204Z,98158.59
2024-02-27T00:28:20.675Z,98152.41
2024-02-27T00:30:48.521Z,98151.28
2024-02-27T00:33:16.413Z,98146.91
2024-02-27T00:35:44.762Z,98142.88
2024-02-27T00:38:14.120Z,98145.47
2024-02-27T00:40:41.844Z,98149.06
2024-02-27T00:43:09.282Z,98156.47
2024-02-27T00:45:36.788Z,98149.09
2024-02-27T00:48:04.465Z,98152.84
2024-02-27T00:50:31.661Z,98149.94
2024-02-27T00:52:58.999Z,98151.84
2024-02-27T00:55:26.201Z,98157.34
2024-02-27T00:57:53.121Z,98152.41
2024-02-27T01:00:22.772Z,98151.88
2024-02-27T01:02:50.536Z,98145.97
2024-02-27T01:05:17.594Z,98150.13
2024-02-27T01:07:45.587Z,98150.13
2024-02-27T01:10:12.920Z,98162.09
2024-02-27T01:12:39.998Z,98162.94
2024-02-27T01:15:08.005Z,98161.84
2024-02-27T01:17:37.234Z,98160.59
2024-02-27T01:20:05.001Z,98160.75
2024-02-27T01:22:34.315Z,98160.75
2024-02-27T01:25:01.839Z,98164.69
2024-02-27T01:27:30.963Z,98161.53
2024-02-27T01:29:57.968Z,98164.03
2024-02-27T01:32:25.185Z,98152.50
2024-02-27T01:34:52.229Z,98152.91
2024-02-27T01:37:22.295Z,98145.22
2024-02-27T01:39:49.467Z,98151.66
2024-02-27T01:42:17.463Z,98151.38
2024-02-27T01:44:52.321Z,98152.47
2024-02-27T01:47:20.414Z,98155.38
2024-02-27T01:49:48.664Z,98140.81
2024-02-27T01:52:20.387Z,98141.13
2024-02-27T01:54:49.638Z,98147.41
2024-02-27T01:57:17.215Z,98149.03
2024-02-27T01:59:45.021Z,98144.50
2024-02-27T02:02:13.615Z,98146.44
2024-02-27T02:04:41.404Z,98152.34
2024-02-27T02:07:08.432Z,98141.22
2024-02-27T02:09:35.455Z,98157.44
2024-02-27T02:12:03.558Z,98162.94
2024-02-27T02:14:30.515Z,98164.44
2024-02-27T02:16:57.550Z,98157.81
2024-02-27T02:19:24.838Z,98159.34
2024-02-27T02:21:52.059Z,98159.62
2024-02-27T02:24:20.303Z,98156.06
2024-02-27T02:26:47.670Z,98153.31
2024-02-27T02:29:15.474Z,98158.13
2024-02-27T02:31:42.396Z,98151.91
2024-02-27T02:34:09.880Z,98157.44
2024-02-27T02:36:37.070Z,98157.19
2024-02-27T02:39:04.130Z,98162.09
2024-02-27T02:41:31.437Z,98161.41
2024-02-27T02:43:58.419Z,98177.53
2024-02-27T02:46:25.392Z,98178.72
2024-02-27T02:48:54.336Z,98180.37
2024-02-27T02:51:22.504Z,98185.59
2024-02-27T02:53:49.500Z,98179.53
2024-02-27T02:56:16.896Z,98188.88
2024-02-27T02:58:46.836Z,98189.31
2024-02-27T03:01:14.312Z,98190.44
2024-02-27T03:03:41.618Z,98190.56
2024-02-27T03:06:08.727Z,98205.97
2024-02-27T03:08:36.744Z,98208.84
2024-02-27T03:11:04.277Z,98201.00
2024-02-27T03:13:31.216Z,98192.91
2024-02-27T03:16:00.177Z,98188.91
2024-02-27T03:18:27.909Z,98193.72
2024-02-27T03:20:55.424Z,98195.63
2024-02-27T03:23:22.870Z,98204.00
2024-02-27T03:25:51.313Z,98206.91
2024-02-27T03:28:18.967Z,98209.66
2024-02-27T03:30:46.426Z,98199.78
2024-02-27T03:33:14.222Z,98198.66
2024-02-27T03:35:42.694Z,98198.38
2024-02-27T03:38:10.130Z,98204.28
2024-02-27T03:40:39.497Z,98210.75
2024-02-27T03:43:07.135Z,98214.19
2024-02-27T03:45:36.929Z,98215.56
2024-02-27T03:48:04.764Z,98209.91
2024-02-27T03:50:31.741Z,98214.19
2024-02-27T03:53:06.597Z,98218.72
2024-02-27T03:55:38.172Z,98222.16
2024-02-27T03:58:05.659Z,98224.47
2024-02-27T04:00:33.273Z,98233.84
2024-02-27T04:03:00.652Z,98228.75
2024-02-27T04:05:27.767Z,98225.03
2024-02-27T04:07:55.212Z,98227.50
2024-02-27T04:10:22.405Z,98222.97
2024-02-27T04:12:49.872Z,98225.72
2024-02-27T04:15:17.225Z,98234.50
2024-02-27T04:17:45.972Z,98234.38
2024-02-27T04:20:13.113Z,98241.78
2024-02-27T04:22:40.904Z,98237.81
2024-02-27T04:25:13.594Z,98230.25
2024-02-27T04:27:41.596Z,98231.88
2024-02-27T04:30:09.954Z,98225.03
2024-02-27T04:32:36.906Z,98223.09
2024-02-27T04:35:09.461Z,98221.47
2024-02-27T04:37:37.140Z,98225.87
2024-02-27T04:40:05.881Z,98231.47
2024-02-27T04:42:36.804Z,98243.19
2024-02-27T04:45:04.326Z,98246.28
2024-02-27T04:47:32.120Z,98255.22
2024-02-27T04:49:59.232Z,98250.25
2024-02-27T04:52:27.424Z,98247.81
2024-02-27T04:54:56.194Z,98245.19
2024-02-27T04:57:27.676Z,98246.56
2024-02-27T04:59:55.400Z,98253.84
2024-02-27T05:02:22.286Z,98247.91
2024-02-27T05:04:49.733Z,98250.38
2024-02-27T05:07:17.671Z,98250.78
2024-02-27T05:09:47.140Z,98246.84
2024-02-27T05:12:14.140Z,98244.78
2024-02-27T05:14:41.318Z,98253.09
2024-02-27T05:17:08.810Z,98256.66
2024-02-27T05:19:36.543Z,98253.63
2024-02-27T05:22:03.865Z,98250.19
2024-02-27T05:24:30.803Z,98257.59
2024-02-27T05:26:58.367Z,98256.09
2024-02-27T05:29:25.808Z,98256.91
2024-02-27T05:31:54.415Z,98261.19
2024-02-27T05:34:21.456Z,98280.84
2024-02-27T05:36:48.714Z,98281.53
2024-02-27T05:39:16.342Z,98282.19
2024-02-27T05:41:43.538Z,98282.78
2024-02-27T05:44:10.927Z,98284.53
2024-02-27T05:46:37.890Z,98282.59
2024-02-27T05:49:05.012Z,98286.59
2024-02-27T05:51:35.119Z,98295.94
2024-02-27T05:54:02.228Z,98292.22
2024-02-27T05:56:29.234Z,98288.25
2024-02-27T05:58:56.440Z,98299.66
2024-02-27T06:01:24.080Z,98300.50
2024-02-27T06:03:55.985Z,98299.53
2024-02-27T06:06:23.376Z,98302.84
2024-02-27T06:08:50.359Z,98303.50
2024-02-27T06:11:17.742Z,98306.12
2024-02-27T06:13:45.328Z,98316.28
2024-02-27T06:16:12.492Z,98323.59
2024-02-27T06:18:44.090Z,98332.00
2024-02-27T06:21:32.991Z,98329.38
2024-02-27T06:24:00.289Z,98335.56
2024-02-27T06:26:28.541Z,98330.47
2024-02-27T06:28:56.286Z,98340.09
2024-02-27T06:31:23.998Z,98335.44
2024-02-27T06:33:51.070Z,98339.53
2024-02-27T06:36:18.105Z,98343.25
2024-02-27T06:38:45.333Z,98356.31
2024-02-27T06:41:12.264Z,98355.34
2024-02-27T06:43:39.161Z,98354.25
2024-02-27T06:46:07.121Z,98352.63
2024-02-27T06:48:40.476Z,98355.09
2024-02-27T06:51:10.127Z,98359.34
2024-02-27T06:53:38.168Z,98365.25
2024-02-27T06:56:06.058Z,98364.03
2024-02-27T06:58:33.248Z,98357.28
2024-02-27T07:01:00.758Z,98361.41
2024-02-27T07:03:29.699Z,98371.31
2024-02-27T07:05:58.912Z,98374.34
2024-02-27T07:08:27.554Z,98371.59
2024-02-27T07:10:55.231Z,98383.41
2024-02-27T07:13:22.481Z,98384.25
2024-02-27T07:15:50.680Z,98383.41
2024-02-27T07:18:21.719Z,98390.16
2024-02-27T07:20:49.073Z,98393.31
2024-02-27T07:23:16.532Z,98393.03
2024-02-27T07:25:44.032Z,98401.84
2024-02-27T07:28:17.455Z,98405.41
2024-02-27T07:30:51.944Z,98413.66
2024-02-27T07:33:19.321Z,98406.38
2024-02-27T07:35:53.603Z,98394.66
2024-02-27T07:38:21.741Z,98393.84
2024-02-27T07:40:51.974Z,98410.38
2024-02-27T07:43:23.853Z,98410.19
2024-02-27T07:45:53.438Z,98419.00
2024-02-27T07:48:24.132Z,98413.34
2024-02-27T07:50:56.638Z,98412.00
2024-02-27T07:53:30.406Z,98416.25
2024-02-27T07:55:58.037Z,98410.34
2024-02-27T07:58:25.634Z,98413.19
2024-02-27T08:00:52.726Z,98421.44
2024-02-27T08:03:23.319Z,98424.59
2024-02-27T08:05:50.355Z,98416.19
2024-02-27T08:08:17.414Z,98424.56
2024-02-27T08:10:44.681Z,98420.97
2024-02-27T08:13:24.435Z,98417.41
2024-02-27T08:15:53.294Z,98418.94
2024-02-27T08:18:21.532Z,98410.28
2024-02-27T08:20:58.527Z,98406.81
2024-02-27T08:23:26.009Z,98401.78
2024-02-27T08:25:53.002Z,98403.28
2024-02-27T08:28:21.898Z,98407.13
2024-02-27T08:30:50.013Z,98405.16
2024-02-27T08:33:17.797Z,98404.00
2024-02-27T08:35:45.478Z,98407.06
2024-02-27T08:38:13.474Z,98406.19
2024-02-27T08:40:40.966Z,98420.44
2024-02-27T08:43:17.554Z,98416.19
2024-02-27T08:45:45.087Z,98414.84
2024-02-27T08:48:12.377Z,98431.03
2024-02-27T08:50:44.925Z,98425.84
2024-02-27T08:53:15.241Z,98428.44
2024-02-27T08:55:44.912Z,98412.12
2024-02-27T08:58:12.928Z,98417.25
2024-02-27T09:00:42.939Z,98406.53
2024-02-27T09:03:11.180Z,98411.22
2024-02-27T09:05:38.483Z,98420.31
2024-02-27T09:08:05.641Z,98419.50
2024-02-27T09:10:33.074Z,98420.94
2024-02-27T09:13:01.958Z,98422.50
2024-02-27T09:15:30.968Z,98426.59
2024-02-27T09:17:58.050Z,98431.41
2024-02-27T09:20:27.053Z,98439.22
2024-02-27T09:22:59.367Z,98439.22
2024-02-27T09:25:27.702Z,98449.06
2024-02-27T09:27:56.380Z,98444.75
2024-02-27T09:30:26.522Z,98444.50
2024-02-27T09:32:55.530Z,98440.91
2024-02-27T09:35:22.862Z,98433.06
2024-02-27T09:37:51.305Z,98435.09
2024-02-27T09:40:21.437Z,98446.66
2024-02-27T09:42:53.171Z,98446.03
2024-02-27T09:45:26.892Z,98443.75
2024-02-27T09:47:55.432Z,98447.69
2024-02-27T09:50:23.633Z,98448.69
2024-02-27T09:52:52.577Z,98451.81
2024-02-27T09:55:22.125Z,98446.53
2024-02-27T09:57:51.123Z,98446.72
2024-02-27T10:00:24.482Z,98445.41
2024-02-27T10:02:54.364Z,98453.28
2024-02-27T10:05:25.134Z,98448.69
2024-02-27T10:07:52.744Z,98458.22
2024-02-27T10:10:20.496Z,98462.00
2024-02-27T10:12:47.735Z,98468.28
2024-02-27T10:15:28.048Z,98480.91
2024-02-27T10:17:56.378Z,98475.03
2024-02-27T10:20:31.943Z,98477.66
2024-02-27T10:22:59.257Z,98466.28
2024-02-27T10:25:29.817Z,98470.72
2024-02-27T10:27:59.766Z,98473.38
2024-02-27T10:30:38.409Z,98475.66
2024-02-27T10:33:09.330Z,98476.81
2024-02-27T10:35:38.551Z,98476.66
2024-02-27T10:38:24.318Z,98474.00
2024-02-27T10:40:51.538Z,98479.47
2024-02-27T10:43:19.846Z,98471.41
2024-02-27T10:45:49.643Z,98476.66
2024-02-27T10:48:26.809Z,98474.53
2024-02-27T10:51:01.005Z,98485.22
2024-02-27T10:53:30.729Z,98482.41
2024-02-27T10:56:01.782Z,98479.63
2024-02-27T10:58:30.728Z,98476.16
2024-02-27T11:01:12.268Z,98475.97
2024-02-27T11:03:43.507Z,98479.31
2024-02-27T11:06:15.349Z,98476.97
2024-02-27T11:08:43.353Z,98482.41
2024-02-27T11:11:10.461Z,98472.53
2024-02-27T11:13:41.770Z,98474.13
2024-02-27T11:16:12.575Z,98471.31
2024-02-27T11:18:50.293Z,98463.41
2024-02-27T11:21:17.795Z,98461.59
2024-02-27T11:23:45.694Z,98459.75
2024-02-27T11:26:15.860Z,98457.09
2024-02-27T11:28:43.127Z,98464.00
2024-02-27T11:31:10.201Z,98457.38
2024-02-27T11:33:47.768Z,98467.91
2024-02-27T11:36:18.854Z,98462.03
2024-02-27T11:38:45.950Z,98450.62
2024-02-27T11:41:18.943Z,98458.28
2024-02-27T11:43:49.144Z,98446.69
2024-02-27T11:46:28.850Z,98452.03
2024-02-27T11:48:59.480Z,98453.59
2024-02-27T11:51:36.598Z,98449.59
2024-02-27T11:54:14.780Z,98450.50
2024-02-27T11:56:44.082Z,98446.13
2024-02-27T11:59:14.928Z,98450.06
2024-02-27T12:01:41.938Z,98451.28
2024-02-27T12:04:12.835Z,98445.22
2024-02-27T12:06:50.097Z,98447.72
2024-02-27T12:09:25.217Z,98447.53
2024-02-27T12:11:53.826Z,98441.06
2024-02-27T12:14:21.356Z,98446.72
2024-02-27T12:16:49.150Z,98442.66
2024-02-27T12:19:16.544Z,98448.06
2024-02-27T12:21:45.223Z,98446.50
2024-02-27T12:24:13.458Z,98436.94
2024-02-27T12:26:40.837Z,98438.69
2024-02-27T12:29:13.898Z,98440.41
2024-02-27T12:31:40.993Z,98447.09
2024-02-27T12:34:08.927Z,98441.56
2024-02-27T12:36:38.801Z,98442.34
2024-02-27T12:39:06.502Z,98433.06
2024-02-27T12:41:33.761Z,98436.63
2024-02-27T12:44:04.563Z,98433.72
2024-02-27T12:46:33.306Z,98440.44
2024-02-27T12:49:01.495Z,98432.66
2024-02-27T12:51:31.566Z,98431.84
2024-02-27T12:54:02.457Z,98442.22
2024-02-27T12:56:30.428Z,98434.94
2024-02-27T12:58:57.739Z,98435.78
2024-02-27T13:01:25.431Z,98435.12
2024-02-27T13:04:01.242Z,98439.72
2024-02-27T13:06:28.886Z,98432.22
2024-02-27T13:08:57.396Z,98437.41
2024-02-27T13:11:24.592Z,98432.72
2024-02-27T13:13:52.046Z,98429.63
2024-02-27T13:16:22.485Z,98435.31
2024-02-27T13:18:51.436Z,98433.06
2024-02-27T13:21:20.269Z,98432.13
2024-02-27T13:23:53.105Z,98426.13
2024-02-27T13:26:20.937Z,98440.16
2024-02-27T13:28:49.652Z,98433.13
2024-02-27T13:31:18.050Z,98439.50
2024-02-27T13:33:45.176Z,98436.97
2024-02-27T13:36:13.725Z,98431.97
2024-02-27T13:38:42.267Z,98426.06
2024-02-27T13:41:09.691Z,98423.59
2024-02-27T13:43:39.779Z,98420.41
2024-02-27T13:46:11.458Z,98418.31
2024-02-27T13:48:42.155Z,98411.19
2024-02-27T13:51:10.677Z,98415.87
2024-02-27T13:53:38.594Z,98411.91
2024-02-27T13:56:06.277Z,98411.97
2024-02-27T13:58:54.848Z,98414.47
2024-02-27T14:01:22.255Z,98417.56
2024-02-27T14:03:50.448Z,98422.56
2024-02-27T14:06:18.271Z,98410.00
2024-02-27T14:08:45.489Z,98409.53
2024-02-27T14:11:13.245Z,98418.25
2024-02-27T14:13:47.520Z,98413.31
2024-02-27T14:16:15.251Z,98408.78
2024-02-27T14:18:49.741Z,98416.81
2024-02-27T14:21:17.679Z,98417.69
2024-02-27T14:23:44.706Z,98422.00
2024-02-27T14:26:12.212Z,98414.13
2024-02-27T14:28:39.879Z,98414.94
2024-02-27T14:31:07.315Z,98415.59
2024-02-27T14:33:34.295Z,98411.28
2024-02-27T14:36:02.125Z,98417.06
2024-02-27T14:38:39.815Z,98414.34
2024-02-27T14:41:08.979Z,98417.78
2024-02-27T14:43:37.338Z,98420.69
2024-02-27T14:46:16.025Z,98422.69
2024-02-27T14:48:48.532Z,98430.91
2024-02-27T14:51:25.663Z,98415.31
2024-02-27T14:53:53.387Z,98412.72
2024-02-27T14:56:26.936Z,98420.88
2024-02-27T14:58:55.634Z,98418.94
2024-02-27T15:01:28.161Z,98419.75
2024-02-27T15:04:02.578Z,98415.63
2024-02-27T15:06:29.676Z,98422.91
2024-02-27T15:08:57.429Z,98417.00
2024-02-27T15:11:25.082Z,98419.25
2024-02-27T15:13:53.370Z,98410.69
2024-02-27T15:16:20.278Z,98423.00
2024-02-27T15:18:47.738Z,98414.13
2024-02-27T15:21:15.749Z,98409.19
2024-02-27T15:23:42.669Z,98411.16
2024-02-27T15:26:09.892Z,98414.03
2024-02-27T15:28:43.950Z,98413.03
2024-02-27T15:31:11.253Z,98422.03
2024-02-27T15:33:38.839Z,98421.44
2024-02-27T15:36:09.675Z,98424.78
2024-02-27T15:38:37.686Z,98420.50
2024-02-27T15:41:04.873Z,98433.84
2024-02-27T15:43:34.693Z,98420.84
2024-02-27T15:46:01.987Z,98435.12
2024-02-27T15:48:29.513Z,98431.56
2024-02-27T15:50:58.196Z,98429.44
2024-02-27T15:53:25.369Z,98428.12
2024-02-27T15:55:52.807Z,98421.91
2024-02-27T15:58:20.939Z,98427.56
2024-02-27T16:00:48.279Z,98423.13
2024-02-27T16:03:28.107Z,98424.31
2024-02-27T16:06:00.453Z,98434.53
2024-02-27T16:08:27.691Z,98427.12
2024-02-27T16:10:54.659Z,98438.28
2024-02-27T16:13:22.087Z,98431.09
2024-02-27T16:15:49.490Z,98432.25
2024-02-27T16:18:18.029Z,98433.56
2024-02-27T16:20:47.029Z,98423.19
2024-02-27T16:23:15.257Z,98429.78
2024-02-27T16:25:43.422Z,98430.59
2024-02-27T16:28:13.812Z,98428.91
2024-02-27T16:30:42.067Z,98438.28
2024-02-27T16:33:11.804Z,98432.84
2024-02-27T16:35:41.237Z,98430.22
2024-02-27T16:38:09.018Z,98434.62
2024-02-27T16:40:36.493Z,98440.38
2024-02-27T16:43:06.902Z,98440.22
2024-02-27T16:45:34.605Z,98440.72
2024-02-27T16:48:03.729Z,98451.50
2024-02-27T16:50:31.221Z,98451.81
2024-02-27T16:52:58.524Z,98452.66
2024-02-27T16:55:26.065Z,98453.81
2024-02-27T16:57:53.172Z,98461.84
2024-02-27T17:00:22.912Z,98462.66
2024-02-27T17:02:50.408Z,98467.91
2024-02-27T17:05:17.342Z,98468.06
2024-02-27T17:07:44.633Z,98480.06
2024-02-27T17:10:12.083Z,98473.81
2024-02-27T17:12:39.973Z,98475.09
2024-02-27T17:15:07.641Z,98478.94
2024-02-27T17:17:53.445Z,98478.00
2024-02-27T17:20:20.700Z,98483.59
2024-02-27T17:22:47.672Z,98483.09
2024-02-27T17:25:14.920Z,98490.66
2024-02-27T17:27:46.003Z,98484.87
2024-02-27T17:30:19.176Z,98485.56
2024-02-27T17:32:46.536Z,98487.34
2024-02-27T17:35:14.913Z,98492.94
2024-02-27T17:37:42.323Z,98491.66
2024-02-27T17:40:10.093Z,98488.53
2024-02-27T17:42:39.032Z,98498.72
2024-02-27T17:45:09.024Z,98490.66
2024-02-27T17:47:36.477Z,98485.91
2024-02-27T17:50:05.408Z,98489.34
2024-02-27T17:52:32.379Z,98482.25
2024-02-27T17:55:07.907Z,98490.78
2024-02-27T17:57:40.699Z,98488.62
2024-02-27T18:00:09.029Z,98482.75
2024-02-27T18:02:43.789Z,98495.19
2024-02-27T18:05:12.725Z,98491.75
2024-02-27T18:07:40.044Z,98488.12
2024-02-27T18:10:08.812Z,98494.22
2024-02-27T18:12:40.503Z,98494.69
2024-02-27T18:15:16.304Z,98495.88
2024-02-27T18:17:48.052Z,98500.28
2024-02-27T18:20:16.352Z,98493.72
2024-02-27T18:22:43.975Z,98493.34
2024-02-27T18:25:13.132Z,98493.81
2024-02-27T18:27:41.197Z,98493.00
2024-02-27T18:30:10.326Z,98495.75
2024-02-27T18:32:39.720Z,98493.50
2024-02-27T18:35:07.528Z,98500.03
2024-02-27T18:37:35.103Z,98503.28
2024-02-27T18:40:05.628Z,98507.16
2024-02-27T18:42:33.280Z,98502.84
2024-02-27T18:45:00.898Z,98497.00
2024-02-27T18:47:27.933Z,98502.09
2024-02-27T18:49:55.727Z,98511.88
2024-02-27T18:52:24.175Z,98507.97
2024-02-27T18:54:52.215Z,98510.13
2024-02-27T18:57:20.008Z,98517.78
2024-02-27T18:59:47.153Z,98519.47
2024-02-27T19:02:16.735Z,98528.53
2024-02-27T19:04:45.661Z,98525.84
2024-02-27T19:07:15.860Z,98526.69
2024-02-27T19:09:44.444Z,98533.16
2024-02-27T19:12:12.602Z,98543.81
2024-02-27T19:14:39.667Z,98538.47
2024-02-27T19:17:09.599Z,98546.84
2024-02-27T19:19:37.036Z,98542.06
2024-02-27T19:22:05.407Z,98551.25
2024-02-27T19:24:32.504Z,98561.75
2024-02-27T19:27:00.072Z,98557.84
2024-02-27T19:29:29.796Z,98559.66
2024-02-27T19:31:56.752Z,98551.47
2024-02-27T19:34:27.185Z,98560.84
2024-02-27T19:37:12.767Z,98559.13
2024-02-27T19:39:41.693Z,98564.28
2024-02-27T19:42:09.207Z,98568.50
2024-02-27T19:44:36.193Z,98564.03
2024-02-27T19:47:07.105Z,98562.75
2024-02-27T19:49:37.407Z,98559.28
2024-02-27T19:52:06.329Z,98556.78
2024-02-27T19:54:37.476Z,98561.88
2024-02-27T19:57:04.873Z,98559.34
2024-02-27T19:59:31.818Z,98556.97
2024-02-27T20:02:01.419Z,98556.62
2024-02-27T20:04:28.872Z,98552.44
2024-02-27T20:07:05.306Z,98559.63
2024-02-27T20:09:32.529Z,98562.78
2024-02-27T20:11:59.485Z,98553.16
2024-02-27T20:14:26.933Z,98560.53
2024-02-27T20:16:54.150Z,98560.03
2024-02-27T20:19:21.166Z,98556.78
2024-02-27T20:21:48.750Z,98555.13
2024-02-27T20:24:16.036Z,98560.91
2024-02-27T20:26:43.809Z,98565.00
2024-02-27T20:29:10.908Z,98563.38
2024-02-27T20:31:44.443Z,98571.00
2024-02-27T20:34:12.062Z,98572.12
2024-02-27T20:36:40.618Z,98565.91
2024-02-27T20:39:09.160Z,98566.66
2024-02-27T20:41:39.773Z,98568.75
2024-02-27T20:44:28.129Z,98574.22
2024-02-27T20:46:55.918Z,98574.38
2024-02-27T20:49:24.587Z,98575.19
2024-02-27T20:51:55.734Z,98570.09
2024-02-27T20:54:22.790Z,98584.03
2024-02-27T20:56:50.355Z,98576.97
2024-02-27T20:59:17.469Z,98584.03
2024-02-27T21:01:44.417Z,98580.44
2024-02-27T21:04:13.954Z,98575.19
2024-02-27T21:06:41.452Z,98584.75
2024-02-27T21:09:09.716Z,98581.88
2024-02-27T21:11:36.955Z,98583.81
2024-02-27T21:14:04.904Z,98583.59
2024-02-27T21:16:32.396Z,98594.50
2024-02-27T21:19:01.271Z,98593.44
2024-02-27T21:21:28.597Z,98597.41
2024-02-27T21:24:00.122Z,98600.44
2024-02-27T21:26:28.736Z,98605.16
2024-02-27T21:28:56.308Z,98608.34
2024-02-27T21:31:23.285Z,98604.66
2024-02-27T21:33:50.535Z,98594.72
2024-02-27T21:36:21.602Z,98601.50
2024-02-27T21:38:49.727Z,98603.56
2024-02-27T21:41:16.924Z,98600.41
2024-02-27T21:43:44.919Z,98597.19
2024-02-27T21:46:12.012Z,98600.66
2024-02-27T21:48:39.758Z,98600.50
2024-02-27T21:51:08.115Z,98608.22
2024-02-27T21:53:38.554Z,98603.22
2024-02-27T21:56:05.806Z,98602.16
2024-02-27T21:58:34.097Z,98601.75
2024-02-27T22:01:01.145Z,98595.84
2024-02-27T22:03:37.964Z,98604.66
2024-02-27T22:06:05.523Z,98609.59
2024-02-27T22:08:35.074Z,98609.38
2024-02-27T22:11:03.913Z,98611.56
2024-02-27T22:13:30.857Z,98610.09
2024-02-27T22:16:04.026Z,98619.84
2024-02-27T22:18:31.602Z,98610.22
2024-02-27T22:20:58.921Z,98620.31
2024-02-27T22:23:27.983Z,98622.41
2024-02-27T22:25:56.085Z,98622.50
2024-02-27T22:28:23.275Z,98615.50
2024-02-27T22:30:50.791Z,98617.41
2024-02-27T22:33:17.905Z,98622.94
2024-02-27T22:35:45.152Z,98622.78
2024-02-27T22:38:12.616Z,98617.56
2024-02-27T22:40:41.534Z,98623.34
2024-02-27T22:43:10.614Z,98618.25
2024-02-27T22:45:45.942Z,98617.69
2024-02-27T22:48:13.409Z,98615.63
2024-02-27T22:50:45.173Z,98619.50
2024-02-27T22:53:12.773Z,98623.34
2024-02-27T22:55:41.070Z,98623.50
2024-02-27T22:58:08.977Z,98624.91
2024-02-27T23:06:42.255Z,98620.63
2024-02-27T23:09:09.780Z,98621.16
2024-02-27T23:11:37.809Z,98629.31
2024-02-27T23:14:08.097Z,98628.44
2024-02-27T23:16:36.894Z,98624.59
2024-02-27T23:19:05.302Z,98624.19
2024-02-27T23:21:33.122Z,98630.41
2024-02-27T23:24:02.367Z,98620.59
2024-02-27T23:26:30.283Z,98623.50
2024-02-27T23:28:58.170Z,98628.16
2024-02-27T23:31:25.577Z,98631.22
2024-02-27T23:33:53.071Z,98636.16
2024-02-27T23:36:23.357Z,98629.72
2024-02-27T23:38:51.020Z,98624.88
2024-02-27T23:41:18.479Z,98630.53
2024-02-27T23:43:46.132Z,98626.12
2024-02-27T23:46:14.062Z,98625.84
2024-02-27T23:48:41.726Z,98624.06
2024-02-27T23:51:10.571Z,98628.19
2024-02-27T23:53:38.022Z,98628.87
2024-02-27T23:56:06.676Z,98625.19
2024-02-27T23:58:34.402Z,98629.28
